createdAt,value
2023-04-18T00:00:06.897Z,8.60
2023-04-18T00:02:40.579Z,8.40
2023-04-18T00:05:12.842Z,8.90
2023-04-18T00:07:41.488Z,9.40
2023-04-18T00:10:12.806Z,9.90
2023-04-18T00:12:41.382Z,8.00
2023-04-18T00:15:10.889Z,5.70
2023-04-18T00:17:40.108Z,6.50
2023-04-18T00:20:12.841Z,8.20
2023-04-18T00:22:42.899Z,11.30
2023-04-18T00:25:11.649Z,6.10
2023-04-18T00:27:40.071Z,7.00
2023-04-18T00:30:09.198Z,6.50
2023-04-18T00:32:39.868Z,5.60
2023-04-18T00:35:11.099Z,7.30
2023-04-18T00:37:39.705Z,5.30
2023-04-18T00:40:09.299Z,5.40
2023-04-18T00:42:37.781Z,5.50
2023-04-18T00:45:07.384Z,5.40
2023-04-18T00:47:36.494Z,4.30
2023-04-18T00:50:05.980Z,5.10
2023-04-18T00:52:36.179Z,16.40
2023-04-18T00:55:06.658Z,3.70
2023-04-18T01:00:09.941Z,6.10
2023-04-18T01:02:39.830Z,3.00
2023-04-18T01:05:08.952Z,4.90
2023-04-18T01:07:40.884Z,6.80
2023-04-18T01:10:10.546Z,3.80
2023-04-18T01:12:39.611Z,5.50
2023-04-18T01:15:08.386Z,8.70
2023-04-18T01:17:38.693Z,4.80
2023-04-18T01:20:11.104Z,7.20
2023-04-18T01:22:41.246Z,9.10
2023-04-18T01:25:10.838Z,4.30
2023-04-18T01:27:39.202Z,4.60
2023-04-18T01:30:11.454Z,2.70
2023-04-18T01:32:40.271Z,4.60
2023-04-18T01:35:09.338Z,5.10
2023-04-18T01:37:37.957Z,3.70
2023-04-18T01:40:07.344Z,2.90
2023-04-18T01:42:35.873Z,3.30
2023-04-18T01:45:07.840Z,9.50
2023-04-18T01:47:36.260Z,6.30
2023-04-18T01:50:05.441Z,4.40
2023-04-18T01:52:34.045Z,3.30
2023-04-18T01:55:06.307Z,9.50
2023-04-18T01:57:36.870Z,7.10
2023-04-18T02:00:06.439Z,11.50
2023-04-18T02:02:43.214Z,5.00
2023-04-18T02:05:11.736Z,5.00
2023-04-18T02:07:41.414Z,3.80
2023-04-18T02:10:11.107Z,5.20
2023-04-18T02:12:39.506Z,5.80
2023-04-18T02:15:08.797Z,6.10
2023-04-18T02:17:38.088Z,3.70
2023-04-18T02:20:08.344Z,5.70
2023-04-18T02:22:40.586Z,5.70
2023-04-18T02:25:11.953Z,8.00
2023-04-18T02:27:40.714Z,5.60
2023-04-18T02:30:09.539Z,8.70
2023-04-18T02:32:41.601Z,4.40
2023-04-18T02:35:12.685Z,7.50
2023-04-18T02:37:41.412Z,7.10
2023-04-18T02:40:10.642Z,5.00
2023-04-18T02:42:39.382Z,6.40
2023-04-18T02:45:08.604Z,2.70
2023-04-18T02:47:47.361Z,5.80
2023-04-18T02:50:19.908Z,3.80
2023-04-18T02:52:48.258Z,4.70
2023-04-18T02:55:18.385Z,11.10
2023-04-18T02:57:47.263Z,4.90
2023-04-18T03:00:44.861Z,4.20
2023-04-18T03:03:39.216Z,8.00
2023-04-18T03:06:23.133Z,5.50
2023-04-18T03:08:51.943Z,5.80
2023-04-18T03:11:23.115Z,7.90
2023-04-18T03:13:51.569Z,7.50
2023-04-18T03:16:20.188Z,3.90
2023-04-18T03:18:49.859Z,6.10
2023-04-18T03:21:18.340Z,6.20
2023-04-18T03:31:30.131Z,8.30
2023-04-18T03:33:58.660Z,9.30
2023-04-18T03:36:29.089Z,6.50
2023-04-18T03:38:57.709Z,5.40
2023-04-18T03:41:26.251Z,8.70
2023-04-18T03:43:56.376Z,6.70
2023-04-18T03:46:24.745Z,7.30
2023-04-18T03:48:54.380Z,9.40
2023-04-18T03:51:22.775Z,4.80
2023-04-18T03:53:51.326Z,4.90
2023-04-18T03:56:19.700Z,3.50
2023-04-18T03:58:52.522Z,7.80
2023-04-18T04:01:21.995Z,6.90
2023-04-18T04:03:52.363Z,10.90
2023-04-18T04:06:21.203Z,11.20
2023-04-18T04:08:49.691Z,3.40
2023-04-18T04:11:22.265Z,14.40
2023-04-18T04:13:51.511Z,4.20
2023-04-18T04:16:22.509Z,7.90
2023-04-18T04:18:51.828Z,7.40
2023-04-18T04:21:21.923Z,10.40
2023-04-18T04:26:27.867Z,7.90
2023-04-18T04:29:03.804Z,5.50
2023-04-18T04:31:33.490Z,10.30
2023-04-18T04:34:01.928Z,7.60
2023-04-18T04:36:30.797Z,7.30
2023-04-18T04:38:59.755Z,9.50
2023-04-18T04:41:33.675Z,8.80
2023-04-18T04:44:02.312Z,4.50
2023-04-18T04:46:34.166Z,7.80
2023-04-18T04:49:05.097Z,4.20
2023-04-18T04:51:44.425Z,6.90
2023-04-18T04:54:12.944Z,11.80
2023-04-18T04:56:41.644Z,11.40
2023-04-18T04:59:12.866Z,16.60
2023-04-18T05:01:43.391Z,16.00
2023-04-18T05:04:12.887Z,9.30
2023-04-18T05:06:41.820Z,10.50
2023-04-18T05:09:10.618Z,11.60
2023-04-18T05:11:40.543Z,8.20
2023-04-18T05:14:08.717Z,10.90
2023-04-18T05:16:37.487Z,13.30
2023-04-18T05:19:08.837Z,8.10
2023-04-18T05:21:38.143Z,11.50
2023-04-18T05:24:06.543Z,19.00
2023-04-18T05:26:35.159Z,8.70
2023-04-18T05:29:03.524Z,12.30
2023-04-18T05:31:32.497Z,9.30
2023-04-18T05:34:00.886Z,12.60
2023-04-18T05:36:35.715Z,11.70
2023-04-18T05:39:04.405Z,5.40
2023-04-18T05:41:35.249Z,8.90
2023-04-18T05:44:05.786Z,9.60
2023-04-18T05:46:35.048Z,6.50
2023-04-18T05:49:05.890Z,5.60
2023-04-18T05:51:34.697Z,7.70
2023-04-18T05:54:03.350Z,9.90
2023-04-18T05:56:32.164Z,8.80
2023-04-18T05:59:00.527Z,21.20
2023-04-18T06:01:29.021Z,9.10
2023-04-18T06:03:57.494Z,10.90
2023-04-18T06:06:26.167Z,8.60
2023-04-18T06:08:54.432Z,9.50
2023-04-18T06:11:23.350Z,7.60
2023-04-18T06:20:52.845Z,9.50
2023-04-18T06:23:21.095Z,8.70
2023-04-18T06:25:48.220Z,6.80
2023-04-18T06:28:17.264Z,5.40
2023-04-18T06:30:45.289Z,11.70
2023-04-18T06:33:12.429Z,14.50
2023-04-18T06:35:42.654Z,11.90
2023-04-18T06:38:11.100Z,7.30
2023-04-18T06:40:38.658Z,8.80
2023-04-18T06:43:06.033Z,6.70
2023-04-18T06:45:36.586Z,7.00
2023-04-18T06:48:27.391Z,10.40
2023-04-18T06:53:22.391Z,12.30
2023-04-18T06:55:49.302Z,11.00
2023-04-18T06:58:17.708Z,9.70
2023-04-18T07:00:48.418Z,8.90
2023-04-18T07:03:15.779Z,5.60
2023-04-18T07:05:43.408Z,11.00
2023-04-18T07:08:11.126Z,16.20
2023-04-18T07:10:38.175Z,8.00
2023-04-18T07:13:05.803Z,5.00
2023-04-18T07:15:38.199Z,9.70
2023-04-18T07:18:05.388Z,9.60
2023-04-18T07:20:32.545Z,11.90
2023-04-18T07:23:02.692Z,8.00
2023-04-18T07:25:52.344Z,8.30
2023-04-18T07:28:20.540Z,8.20
2023-04-18T07:30:48.459Z,8.40
2023-04-18T07:33:17.190Z,11.50
2023-04-18T07:35:45.328Z,11.60
2023-04-18T07:38:12.459Z,9.30
2023-04-18T07:40:39.274Z,13.30
2023-04-18T07:43:06.308Z,18.50
2023-04-18T07:45:37.689Z,7.60
2023-04-18T07:48:06.188Z,10.30
2023-04-18T07:50:33.824Z,5.30
2023-04-18T07:53:12.034Z,5.10
2023-04-18T07:55:38.977Z,7.50
2023-04-18T07:58:06.486Z,6.20
2023-04-18T08:00:33.541Z,13.70
2023-04-18T08:03:00.883Z,8.80
2023-04-18T08:05:29.914Z,5.40
2023-04-18T08:08:02.622Z,7.00
2023-04-18T08:10:29.579Z,5.30
2023-04-18T08:12:56.784Z,18.20
2023-04-18T08:15:23.913Z,6.90
2023-04-18T08:17:51.073Z,7.80
2023-04-18T08:20:18.353Z,9.40
2023-04-18T08:23:02.375Z,5.50
2023-04-18T08:25:33.041Z,5.60
2023-04-18T08:49:42.903Z,6.10
2023-04-18T08:52:12.469Z,8.50
2023-04-18T08:54:47.253Z,5.10
2023-04-18T08:57:27.004Z,13.10
2023-04-18T09:00:16.649Z,5.20
2023-04-18T09:03:08.615Z,10.00
2023-04-18T09:05:38.206Z,8.50
2023-04-18T09:08:22.045Z,9.60
2023-04-18T09:10:50.726Z,9.20
2023-04-18T09:13:37.535Z,10.40
2023-04-18T09:16:06.422Z,11.10
2023-04-18T09:18:35.630Z,15.90
2023-04-18T09:21:19.548Z,11.40
2023-04-18T09:23:48.250Z,13.20
2023-04-18T09:26:33.212Z,23.10
2023-04-18T09:29:03.381Z,6.90
2023-04-18T09:31:35.884Z,8.70
2023-04-18T09:34:05.302Z,5.20
2023-04-18T09:36:45.450Z,8.80
2023-04-18T09:39:32.005Z,4.70
2023-04-18T09:42:04.391Z,11.90
2023-04-18T09:44:33.607Z,9.20
2023-04-18T09:47:21.978Z,8.60
2023-04-18T09:49:52.807Z,5.30
2023-04-18T09:52:26.334Z,5.90
2023-04-18T09:54:58.769Z,8.70
2023-04-18T09:57:29.020Z,8.30
2023-04-18T10:00:31.371Z,8.20
2023-04-18T10:03:08.309Z,6.10
2023-04-18T10:06:02.773Z,13.00
2023-04-18T10:08:33.267Z,17.60
2023-04-18T10:11:01.620Z,10.30
2023-04-18T10:13:29.970Z,5.30
2023-04-18T10:18:29.863Z,10.60
2023-04-18T10:21:03.589Z,6.90
2023-04-18T10:23:32.463Z,10.50
2023-04-18T10:26:01.717Z,6.20
2023-04-18T10:34:46.557Z,12.40
2023-04-18T10:39:53.261Z,8.10
2023-04-18T10:42:49.471Z,7.60
2023-04-18T10:45:30.708Z,6.90
2023-04-18T10:48:23.434Z,8.80
2023-04-18T10:51:33.217Z,8.90
2023-04-18T10:54:00.374Z,6.60
2023-04-18T10:56:28.653Z,6.20
2023-04-18T10:58:55.905Z,11.20
2023-04-18T11:01:31.028Z,8.10
2023-04-18T11:03:59.321Z,6.30
2023-04-18T11:06:27.310Z,7.90
2023-04-18T11:09:14.403Z,6.00
2023-04-18T11:11:45.377Z,6.20
2023-04-18T11:14:12.669Z,12.10
2023-04-18T11:16:40.543Z,12.10
2023-04-18T11:19:41.016Z,15.90
2023-04-18T11:22:28.492Z,10.90
2023-04-18T11:24:59.969Z,8.20
2023-04-18T11:27:28.681Z,9.10
2023-04-18T11:30:15.753Z,6.40
2023-04-18T11:32:43.621Z,8.90
2023-04-18T11:35:12.453Z,9.70
2023-04-18T11:37:40.615Z,4.50
2023-04-18T11:40:11.318Z,9.60
2023-04-18T11:42:42.865Z,10.20
2023-04-18T11:47:42.531Z,15.70
2023-04-18T11:50:11.167Z,8.00
2023-04-18T11:52:40.525Z,4.50
2023-04-18T11:55:14.104Z,11.60
2023-04-18T11:57:41.307Z,6.70
2023-04-18T12:00:11.604Z,6.50
2023-04-18T12:02:44.272Z,9.20
2023-04-18T12:05:13.999Z,8.20
2023-04-18T12:34:56.967Z,33.50
2023-04-18T12:37:25.963Z,16.90
2023-04-18T12:39:54.661Z,14.10
2023-04-18T12:42:23.549Z,21.70
2023-04-18T12:44:56.022Z,18.60
2023-04-18T12:47:27.993Z,20.80
2023-04-18T12:49:57.720Z,24.70
2023-04-18T12:52:25.964Z,11.90
2023-04-18T12:54:56.457Z,6.50
2023-04-18T12:57:27.143Z,9.40
2023-04-18T12:59:56.178Z,6.60
2023-04-18T13:02:24.863Z,7.60
2023-04-18T13:04:53.680Z,4.30
2023-04-18T13:07:22.165Z,13.00
2023-04-18T13:28:52.859Z,24.30
2023-04-18T13:31:21.399Z,52.60
2023-04-18T13:33:52.625Z,47.60
2023-04-18T13:36:22.460Z,14.80
2023-04-18T13:38:55.289Z,11.50
2023-04-18T13:41:24.564Z,16.20
2023-04-18T13:43:53.526Z,10.50
2023-04-18T13:46:23.549Z,10.60
2023-04-18T13:48:51.936Z,8.00
2023-04-18T13:51:20.640Z,12.30
2023-04-18T13:53:49.725Z,12.10
2023-04-18T13:56:18.800Z,13.00
2023-04-18T13:58:47.138Z,8.40
2023-04-18T14:01:16.986Z,15.80
2023-04-18T14:03:47.173Z,8.80
2023-04-18T14:06:15.952Z,8.10
2023-04-18T14:08:44.471Z,14.80
2023-04-18T14:11:16.450Z,11.10
2023-04-18T14:13:44.820Z,8.50
2023-04-18T14:16:13.399Z,10.00
2023-04-18T14:18:42.130Z,7.80
2023-04-18T14:21:10.873Z,15.80
2023-04-18T14:23:57.155Z,13.30
2023-04-18T14:26:26.011Z,9.40
2023-04-18T14:28:54.323Z,10.50
2023-04-18T14:31:23.181Z,9.10
2023-04-18T14:33:54.411Z,12.10
2023-04-18T14:36:22.811Z,5.70
2023-04-18T14:38:51.429Z,12.10
2023-04-18T14:41:19.606Z,13.20
2023-04-18T14:43:47.924Z,13.30
2023-04-18T14:46:17.090Z,15.40
2023-04-18T14:48:49.079Z,20.00
2023-04-18T14:51:17.917Z,16.50
2023-04-18T14:53:49.153Z,16.10
2023-04-18T14:56:21.284Z,11.00
2023-04-18T14:58:49.630Z,21.00
2023-04-18T15:01:17.902Z,13.40
2023-04-18T15:03:46.480Z,17.60
2023-04-18T15:06:15.038Z,9.10
2023-04-18T15:08:44.946Z,11.30
2023-04-18T15:11:13.853Z,14.70
2023-04-18T15:13:52.710Z,15.20
2023-04-18T15:17:15.484Z,14.10
2023-04-18T15:19:46.647Z,14.80
2023-04-18T15:22:17.199Z,14.60
2023-04-18T15:24:51.735Z,10.20
2023-04-18T15:27:20.349Z,12.80
2023-04-18T15:29:48.713Z,7.40
2023-04-18T15:32:17.266Z,20.80
2023-04-18T15:34:46.161Z,12.90
2023-04-18T15:37:14.910Z,7.30
2023-04-18T15:39:43.441Z,8.30
2023-04-18T15:42:11.907Z,17.00
2023-04-18T15:44:43.173Z,12.40
2023-04-18T15:47:11.680Z,14.90
2023-04-18T15:49:40.251Z,20.20
2023-04-18T15:52:08.799Z,14.20
2023-04-18T15:54:54.165Z,14.90
2023-04-18T15:57:22.486Z,23.80
2023-04-18T15:59:50.822Z,23.00
2023-04-18T16:02:19.331Z,12.60
2023-04-18T16:04:47.859Z,14.00
2023-04-18T16:07:33.656Z,13.70
2023-04-18T16:10:06.501Z,14.20
2023-04-18T16:12:35.030Z,13.60
2023-04-18T16:15:08.761Z,12.60
2023-04-18T16:17:37.759Z,13.60
2023-04-18T16:20:08.607Z,14.10
2023-04-18T16:22:37.438Z,20.70
2023-04-18T16:25:06.962Z,19.70
2023-04-18T16:27:35.741Z,16.60
2023-04-18T16:30:05.309Z,15.40
2023-04-18T16:32:33.848Z,16.90
2023-04-18T16:35:08.053Z,12.70
2023-04-18T16:37:40.421Z,29.50
2023-04-18T16:40:12.897Z,28.00
2023-04-18T16:42:42.092Z,58.80
2023-04-18T16:45:10.748Z,36.50
2023-04-18T16:47:39.839Z,33.70
2023-04-18T16:50:09.221Z,28.60
2023-04-18T16:52:37.960Z,24.60
2023-04-18T16:55:06.848Z,31.80
2023-04-18T16:57:35.146Z,34.00
2023-04-18T17:00:05.089Z,28.40
2023-04-18T17:02:35.340Z,26.90
2023-04-18T17:05:04.291Z,36.00
2023-04-18T17:07:32.720Z,31.60
2023-04-18T17:10:02.247Z,30.70
2023-04-18T17:12:31.652Z,24.00
2023-04-18T17:14:59.789Z,17.90
2023-04-18T17:17:28.345Z,19.30
2023-04-18T17:19:58.824Z,11.80
2023-04-18T17:22:27.157Z,17.90
2023-04-18T17:24:58.275Z,13.40
2023-04-18T17:27:26.623Z,11.90
2023-04-18T17:32:25.488Z,15.30
2023-04-18T17:34:54.212Z,7.80
2023-04-18T17:37:23.023Z,9.80
2023-04-18T17:39:51.484Z,11.20
2023-04-18T17:42:21.423Z,9.70
2023-04-18T17:44:49.980Z,11.20
2023-04-18T17:47:18.437Z,12.50
2023-04-18T17:49:46.866Z,8.90
2023-04-18T17:52:15.309Z,10.50
2023-04-18T17:54:44.119Z,9.80
2023-04-18T17:57:13.103Z,9.90
2023-04-18T17:59:41.403Z,10.50
2023-04-18T18:02:11.791Z,11.70
2023-04-18T18:07:12.138Z,7.30
2023-04-18T18:09:45.749Z,12.40
2023-04-18T18:12:14.236Z,12.50
2023-04-18T18:14:45.705Z,10.50
2023-04-18T18:17:14.252Z,9.90
2023-04-18T18:19:45.604Z,9.80
2023-04-18T18:22:13.984Z,8.10
2023-04-18T18:24:42.472Z,12.00
2023-04-18T18:27:11.045Z,11.30
2023-04-18T18:29:39.519Z,9.50
2023-04-18T18:32:07.903Z,16.00
2023-04-18T18:34:36.481Z,7.90
2023-04-18T18:37:04.619Z,9.10
2023-04-18T18:39:33.034Z,12.90
2023-04-18T18:42:02.465Z,8.00
2023-04-18T18:44:30.708Z,12.70
2023-04-18T18:47:00.045Z,14.10
2023-04-18T18:49:28.632Z,12.50
2023-04-18T18:51:57.293Z,16.90
2023-04-18T18:54:26.207Z,10.70
2023-04-18T18:56:54.876Z,24.60
2023-04-18T18:59:23.192Z,17.80
2023-04-18T19:01:51.854Z,14.40
2023-04-18T19:04:20.671Z,18.80
2023-04-18T19:06:49.003Z,17.70
2023-04-18T19:09:17.664Z,13.10
2023-04-18T19:11:49.190Z,11.10
2023-04-18T19:14:17.534Z,12.70
2023-04-18T20:15:45.456Z,7.30
2023-04-18T23:01:29.256Z,10.80
